sensor_id;sensor_type;location;lat;lon;timestamp;pressure;altitude;pressure_sealevel;temperature;humidity
73600;BME280;61877;48.246;9.220;2024-03-08T00:00:05;93855.94;;;0.53;100.00
73600;BME280;61877;48.246;9.220;2024-03-08T00:02:32;93855.66;;;0.54;100.00
73600;BME280;61877;48.246;9.220;2024-03-08T00:04:59;93857.22;;;0.79;100.00
73600;BME280;61877;48.246;9.220;2024-03-08T00:07:28;93847.75;;;0.78;100.00
73600;BME280;61877;48.246;9.220;2024-03-08T00:09:57;93856.44;;;0.78;100.00
73600;BME280;61877;48.246;9.220;2024-03-08T00:12:24;93850.91;;;0.75;100.00
73600;BME280;61877;48.246;9.220;2024-03-08T00:14:54;93850.22;;;0.69;100.00
73600;BME280;61877;48.246;9.220;2024-03-08T00:17:21;93853.91;;;0.68;100.00
73600;BME280;61877;48.246;9.220;2024-03-08T00:19:48;93852.44;;;0.57;100.00
73600;BME280;61877;48.246;9.220;2024-03-08T00:22:15;93854.81;;;0.59;100.00
73600;BME280;61877;48.246;9.220;2024-03-08T00:24:41;93844.81;;;0.56;100.00
73600;BME280;61877;48.246;9.220;2024-03-08T00:27:08;93844.66;;;0.47;100.00
73600;BME280;61877;48.246;9.220;2024-03-08T00:29:35;93842.34;;;0.41;100.00
73600;BME280;61877;48.246;9.220;2024-03-08T00:32:03;93842.81;;;0.48;100.00
73600;BME280;61877;48.246;9.220;2024-03-08T00:34:29;93839.66;;;0.46;100.00
73600;BME280;61877;48.246;9.220;2024-03-08T00:36:56;93842.56;;;0.44;100.00
73600;BME280;61877;48.246;9.220;2024-03-08T00:39:23;93834.66;;;0.44;100.00
73600;BME280;61877;48.246;9.220;2024-03-08T00:41:49;93834.88;;;0.48;100.00
73600;BME280;61877;48.246;9.220;2024-03-08T00:44:16;93835.75;;;0.62;100.00
73600;BME280;61877;48.246;9.220;2024-03-08T00:46:42;93832.72;;;0.55;100.00
73600;BME280;61877;48.246;9.220;2024-03-08T00:49:10;93829.09;;;0.46;100.00
73600;BME280;61877;48.246;9.220;2024-03-08T00:51:37;93825.44;;;0.42;100.00
73600;BME280;61877;48.246;9.220;2024-03-08T00:54:03;93829.91;;;0.46;100.00
73600;BME280;61877;48.246;9.220;2024-03-08T00:56:30;93818.78;;;0.49;100.00
73600;BME280;61877;48.246;9.220;2024-03-08T00:58:56;93821.47;;;0.44;100.00
73600;BME280;61877;48.246;9.220;2024-03-08T01:01:23;93823.94;;;0.36;100.00
73600;BME280;61877;48.246;9.220;2024-03-08T01:03:49;93827.38;;;0.36;100.00
73600;BME280;61877;48.246;9.220;2024-03-08T01:06:17;93813.16;;;0.32;100.00
73600;BME280;61877;48.246;9.220;2024-03-08T01:08:44;93811.06;;;0.29;100.00
73600;BME280;61877;48.246;9.220;2024-03-08T01:11:12;93813.19;;;0.27;100.00
73600;BME280;61877;48.246;9.220;2024-03-08T01:13:39;93803.34;;;0.38;100.00
73600;BME280;61877;48.246;9.220;2024-03-08T01:16:06;93798.13;;;0.33;100.00
73600;BME280;61877;48.246;9.220;2024-03-08T01:18:33;93804.72;;;0.30;100.00
73600;BME280;61877;48.246;9.220;2024-03-08T01:20:59;93799.28;;;0.22;100.00
73600;BME280;61877;48.246;9.220;2024-03-08T01:23:27;93795.75;;;0.31;100.00
73600;BME280;61877;48.246;9.220;2024-03-08T01:25:54;93785.97;;;0.32;100.00
73600;BME280;61877;48.246;9.220;2024-03-08T01:28:21;93787.91;;;0.26;100.00
73600;BME280;61877;48.246;9.220;2024-03-08T01:30:47;93782.41;;;0.23;100.00
73600;BME280;61877;48.246;9.220;2024-03-08T01:33:14;93780.31;;;0.20;100.00
73600;BME280;61877;48.246;9.220;2024-03-08T01:35:40;93779.25;;;0.21;100.00
73600;BME280;61877;48.246;9.220;2024-03-08T01:38:07;93763.09;;;0.27;100.00
73600;BME280;61877;48.246;9.220;2024-03-08T01:40:35;93766.41;;;0.38;100.00
73600;BME280;61877;48.246;9.220;2024-03-08T01:43:17;93756.41;;;0.35;100.00
73600;BME280;61877;48.246;9.220;2024-03-08T01:45:44;93754.78;;;0.39;100.00
73600;BME280;61877;48.246;9.220;2024-03-08T01:48:10;93747.38;;;0.41;100.00
73600;BME280;61877;48.246;9.220;2024-03-08T01:50:37;93749.19;;;0.40;100.00
73600;BME280;61877;48.246;9.220;2024-03-08T01:53:04;93742.88;;;0.41;100.00
73600;BME280;61877;48.246;9.220;2024-03-08T01:55:31;93747.00;;;0.47;100.00
73600;BME280;61877;48.246;9.220;2024-03-08T01:58:00;93747.00;;;0.47;100.00
73600;BME280;61877;48.246;9.220;2024-03-08T02:00:27;93741.38;;;0.54;100.00
73600;BME280;61877;48.246;9.220;2024-03-08T02:02:54;93748.44;;;0.58;100.00
73600;BME280;61877;48.246;9.220;2024-03-08T02:05:21;93739.06;;;0.71;100.00
73600;BME280;61877;48.246;9.220;2024-03-08T02:07:47;93735.41;;;0.67;100.00
73600;BME280;61877;48.246;9.220;2024-03-08T02:10:14;93733.84;;;0.66;100.00
73600;BME280;61877;48.246;9.220;2024-03-08T02:12:41;93733.06;;;0.65;100.00
73600;BME280;61877;48.246;9.220;2024-03-08T02:15:09;93728.28;;;0.67;100.00
73600;BME280;61877;48.246;9.220;2024-03-08T02:17:36;93723.00;;;0.67;100.00
73600;BME280;61877;48.246;9.220;2024-03-08T02:20:03;93728.28;;;0.67;100.00
73600;BME280;61877;48.246;9.220;2024-03-08T02:22:31;93725.13;;;0.65;100.00
73600;BME280;61877;48.246;9.220;2024-03-08T02:24:58;93712.72;;;0.66;100.00
73600;BME280;61877;48.246;9.220;2024-03-08T02:27:25;93723.00;;;0.67;100.00
73600;BME280;61877;48.246;9.220;2024-03-08T02:29:54;93707.16;;;0.67;100.00
73600;BME280;61877;48.246;9.220;2024-03-08T02:32:22;93707.47;;;0.66;100.00
73600;BME280;61877;48.246;9.220;2024-03-08T02:34:48;93704.53;;;0.67;100.00
73600;BME280;61877;48.246;9.220;2024-03-08T02:37:15;93716.84;;;0.72;100.00
73600;BME280;61877;48.246;9.220;2024-03-08T02:39:43;93710.31;;;0.69;100.00
73600;BME280;61877;48.246;9.220;2024-03-08T02:42:09;93715.09;;;0.67;100.00
73600;BME280;61877;48.246;9.220;2024-03-08T02:44:36;93701.88;;;0.67;100.00
73600;BME280;61877;48.246;9.220;2024-03-08T02:47:03;93702.75;;;0.63;100.00
73600;BME280;61877;48.246;9.220;2024-03-08T02:49:30;93700.13;;;0.63;100.00
73600;BME280;61877;48.246;9.220;2024-03-08T02:51:56;93694.03;;;0.62;100.00
73600;BME280;61877;48.246;9.220;2024-03-08T02:54:23;93689.47;;;0.68;100.00
73600;BME280;61877;48.246;9.220;2024-03-08T02:56:51;93690.91;;;0.60;100.00
73600;BME280;61877;48.246;9.220;2024-03-08T02:59:17;93689.06;;;0.61;100.00
73600;BME280;61877;48.246;9.220;2024-03-08T03:01:44;93689.34;;;0.59;100.00
73600;BME280;61877;48.246;9.220;2024-03-08T03:04:11;93681.13;;;0.61;100.00
73600;BME280;61877;48.246;9.220;2024-03-08T03:06:37;93679.28;;;0.61;100.00
73600;BME280;61877;48.246;9.220;2024-03-08T03:09:04;93680.63;;;0.59;100.00
73600;BME280;61877;48.246;9.220;2024-03-08T03:11:30;93674.19;;;0.65;100.00
73600;BME280;61877;48.246;9.220;2024-03-08T03:13:58;93672.50;;;0.55;100.00
73600;BME280;61877;48.246;9.220;2024-03-08T03:16:25;93670.28;;;0.62;100.00
73600;BME280;61877;48.246;9.220;2024-03-08T03:18:51;93668.16;;;0.64;100.00
73600;BME280;61877;48.246;9.220;2024-03-08T03:21:18;93679.47;;;0.65;100.00
73600;BME280;61877;48.246;9.220;2024-03-08T03:23:45;93664.00;;;0.58;100.00
73600;BME280;61877;48.246;9.220;2024-03-08T03:26:14;93671.91;;;0.58;100.00
73600;BME280;61877;48.246;9.220;2024-03-08T03:28:41;93668.72;;;0.61;100.00
73600;BME280;61877;48.246;9.220;2024-03-08T03:31:09;93657.44;;;0.56;100.00
73600;BME280;61877;48.246;9.220;2024-03-08T03:33:36;93667.22;;;0.55;100.00
73600;BME280;61877;48.246;9.220;2024-03-08T03:36:03;93663.31;;;0.53;100.00
73600;BME280;61877;48.246;9.220;2024-03-08T03:38:30;93658.94;;;0.62;100.00
73600;BME280;61877;48.246;9.220;2024-03-08T03:40:57;93657.75;;;0.54;100.00
73600;BME280;61877;48.246;9.220;2024-03-08T03:43:23;93659.28;;;0.55;100.00
73600;BME280;61877;48.246;9.220;2024-03-08T03:45:50;93661.78;;;0.47;100.00
73600;BME280;61877;48.246;9.220;2024-03-08T03:48:18;93653.03;;;0.51;100.00
73600;BME280;61877;48.246;9.220;2024-03-08T03:50:45;93649.31;;;0.52;100.00
73600;BME280;61877;48.246;9.220;2024-03-08T03:53:11;93644.69;;;0.44;100.00
73600;BME280;61877;48.246;9.220;2024-03-08T03:55:38;93649.44;;;0.42;100.00
73600;BME280;61877;48.246;9.220;2024-03-08T03:58:06;93645.19;;;0.46;100.00
73600;BME280;61877;48.246;9.220;2024-03-08T04:00:32;93645.94;;;0.47;100.00
73600;BME280;61877;48.246;9.220;2024-03-08T04:03:01;93648.53;;;0.52;100.00
73600;BME280;61877;48.246;9.220;2024-03-08T04:05:30;93656.50;;;0.47;100.00
73600;BME280;61877;48.246;9.220;2024-03-08T04:07:56;93649.53;;;0.56;100.00
73600;BME280;61877;48.246;9.220;2024-03-08T04:10:23;93643.53;;;0.50;100.00
73600;BME280;61877;48.246;9.220;2024-03-08T04:12:50;93647.81;;;0.46;100.00
73600;BME280;61877;48.246;9.220;2024-03-08T04:15:17;93645.19;;;0.46;100.00
73600;BME280;61877;48.246;9.220;2024-03-08T04:17:43;93644.97;;;0.43;100.00
73600;BME280;61877;48.246;9.220;2024-03-08T04:20:10;93640.28;;;0.40;100.00
73600;BME280;61877;48.246;9.220;2024-03-08T04:22:39;93636.91;;;0.34;100.00
73600;BME280;61877;48.246;9.220;2024-03-08T04:25:06;93642.47;;;0.33;100.00
73600;BME280;61877;48.246;9.220;2024-03-08T04:27:33;93644.59;;;0.31;100.00
73600;BME280;61877;48.246;9.220;2024-03-08T04:30:00;93636.34;;;0.37;100.00
73600;BME280;61877;48.246;9.220;2024-03-08T04:32:27;93635.19;;;0.43;100.00
73600;BME280;61877;48.246;9.220;2024-03-08T04:34:54;93629.66;;;0.45;100.00
73600;BME280;61877;48.246;9.220;2024-03-08T04:37:21;93632.53;;;0.43;100.00
73600;BME280;61877;48.246;9.220;2024-03-08T04:39:49;93624.44;;;0.40;100.00
73600;BME280;61877;48.246;9.220;2024-03-08T04:42:15;93624.09;;;0.46;100.00
73600;BME280;61877;48.246;9.220;2024-03-08T04:44:42;93622.50;;;0.45;100.00
73600;BME280;61877;48.246;9.220;2024-03-08T04:47:09;93622.06;;;0.38;100.00
73600;BME280;61877;48.246;9.220;2024-03-08T04:49:39;93614.66;;;0.40;100.00
73600;BME280;61877;48.246;9.220;2024-03-08T04:52:06;93620.50;;;0.37;100.00
73600;BME280;61877;48.246;9.220;2024-03-08T04:54:33;93611.38;;;0.48;100.00
73600;BME280;61877;48.246;9.220;2024-03-08T04:57:01;93608.53;;;0.45;100.00
73600;BME280;61877;48.246;9.220;2024-03-08T04:59:30;93614.66;;;0.40;100.00
73600;BME280;61877;48.246;9.220;2024-03-08T05:01:57;93614.44;;;0.37;100.00
73600;BME280;61877;48.246;9.220;2024-03-08T05:04:23;93615.81;;;0.34;100.00
73600;BME280;61877;48.246;9.220;2024-03-08T05:06:50;93610.97;;;0.41;100.00
73600;BME280;61877;48.246;9.220;2024-03-08T05:09:17;93605.47;;;0.38;100.00
73600;BME280;61877;48.246;9.220;2024-03-08T05:11:44;93611.50;;;0.38;100.00
73600;BME280;61877;48.246;9.220;2024-03-08T05:14:12;93606.41;;;0.28;100.00
73600;BME280;61877;48.246;9.220;2024-03-08T05:16:39;93602.63;;;0.34;100.00
73600;BME280;61877;48.246;9.220;2024-03-08T05:19:06;93604.53;;;0.29;100.00
73600;BME280;61877;48.246;9.220;2024-03-08T05:21:32;93607.09;;;0.34;100.00
73600;BME280;61877;48.246;9.220;2024-03-08T05:24:15;93617.94;;;0.32;100.00
73600;BME280;61877;48.246;9.220;2024-03-08T05:26:41;93617.06;;;0.37;100.00
73600;BME280;61877;48.246;9.220;2024-03-08T05:29:13;93614.25;;;0.33;100.00
73600;BME280;61877;48.246;9.220;2024-03-08T05:31:50;93602.25;;;0.22;100.00
73600;BME280;61877;48.246;9.220;2024-03-08T05:34:17;93596.97;;;0.22;100.00
73600;BME280;61877;48.246;9.220;2024-03-08T05:36:43;93600.69;;;0.21;100.00
73600;BME280;61877;48.246;9.220;2024-03-08T05:39:11;93603.75;;;0.10;100.00
73600;BME280;61877;48.246;9.220;2024-03-08T05:41:38;93601.75;;;0.02;100.00
73600;BME280;61877;48.246;9.220;2024-03-08T05:47:06;93607.88;;;0.16;100.00
73600;BME280;61877;48.246;9.220;2024-03-08T05:49:44;93607.09;;;0.15;100.00
73600;BME280;61877;48.246;9.220;2024-03-08T05:52:17;93603.97;;;0.13;100.00
73600;BME280;61877;48.246;9.220;2024-03-08T05:54:52;93608.66;;;0.16;100.00
73600;BME280;61877;48.246;9.220;2024-03-08T05:57:19;93602.25;;;0.22;100.00
73600;BME280;61877;48.246;9.220;2024-03-08T05:59:49;93600.69;;;0.21;100.00
73600;BME280;61877;48.246;9.220;2024-03-08T06:02:17;93596.06;;;0.13;100.00
73600;BME280;61877;48.246;9.220;2024-03-08T06:04:44;93598.91;;;0.17;100.00
73600;BME280;61877;48.246;9.220;2024-03-08T06:07:11;93602.97;;;0.09;100.00
73600;BME280;61877;48.246;9.220;2024-03-08T06:09:40;93607.44;;;0.09;100.00
73600;BME280;61877;48.246;9.220;2024-03-08T06:12:07;93605.72;;;-0.01;100.00
73600;BME280;61877;48.246;9.220;2024-03-08T06:14:34;93595.63;;;0.06;100.00
73600;BME280;61877;48.246;9.220;2024-03-08T06:17:04;93595.56;;;0.11;100.00
73600;BME280;61877;48.246;9.220;2024-03-08T06:19:32;93596.66;;;0.05;100.00
73600;BME280;61877;48.246;9.220;2024-03-08T06:21:58;93601.19;;;0.05;100.00
73600;BME280;61877;48.246;9.220;2024-03-08T06:24:25;93596.41;;;0.07;100.00
73600;BME280;61877;48.246;9.220;2024-03-08T06:26:52;93600.44;;;-0.01;100.00
73600;BME280;61877;48.246;9.220;2024-03-08T06:29:19;93600.38;;;0.04;100.00
73600;BME280;61877;48.246;9.220;2024-03-08T06:31:48;93596.34;;;0.12;100.00
73600;BME280;61877;48.246;9.220;2024-03-08T06:34:17;93591.19;;;0.20;100.00
73600;BME280;61877;48.246;9.220;2024-03-08T06:36:46;93596.13;;;0.08;100.00
73600;BME280;61877;48.246;9.220;2024-03-08T06:39:13;93601.25;;;0.18;100.00
73600;BME280;61877;48.246;9.220;2024-03-08T06:41:40;93598.91;;;0.17;100.00
73600;BME280;61877;48.246;9.220;2024-03-08T06:44:06;93598.25;;;0.06;100.00
73600;BME280;61877;48.246;9.220;2024-03-08T06:46:36;93597.25;;;0.02;100.00
73600;BME280;61877;48.246;9.220;2024-03-08T06:49:03;93597.75;;;0.04;100.00
73600;BME280;61877;48.246;9.220;2024-03-08T06:51:30;93592.97;;;0.06;100.00
73600;BME280;61877;48.246;9.220;2024-03-08T06:53:59;93594.44;;;-0.07;100.00
73600;BME280;61877;48.246;9.220;2024-03-08T06:56:26;93591.75;;;-0.02;100.00
73600;BME280;61877;48.246;9.220;2024-03-08T06:58:52;93588.06;;;-0.01;100.00
73600;BME280;61877;48.246;9.220;2024-03-08T07:01:19;93595.63;;;0.06;100.00
73600;BME280;61877;48.246;9.220;2024-03-08T07:03:48;93591.63;;;0.09;100.00
73600;BME280;61877;48.246;9.220;2024-03-08T07:06:15;93593.13;;;-0.04;100.00
73600;BME280;61877;48.246;9.220;2024-03-08T07:08:42;93597.03;;;-0.02;100.00
73600;BME280;61877;48.246;9.220;2024-03-08T07:11:14;93604.59;;;0.05;100.00
73600;BME280;61877;48.246;9.220;2024-03-08T07:13:49;93598.84;;;0.03;100.00
73600;BME280;61877;48.246;9.220;2024-03-08T07:16:17;93599.19;;;0.15;100.00
73600;BME280;61877;48.246;9.220;2024-03-08T07:18:44;93598.69;;;0.13;100.00
73600;BME280;61877;48.246;9.220;2024-03-08T07:21:11;93587.44;;;0.26;100.00
73600;BME280;61877;48.246;9.220;2024-03-08T07:23:38;93600.78;;;0.35;100.00
73600;BME280;61877;48.246;9.220;2024-03-08T07:26:05;93590.63;;;0.42;100.00
73600;BME280;61877;48.246;9.220;2024-03-08T07:28:33;93589.50;;;0.48;100.00
73600;BME280;61877;48.246;9.220;2024-03-08T07:31:03;93591.03;;;0.49;100.00
73600;BME280;61877;48.246;9.220;2024-03-08T07:33:30;93584.72;;;0.31;100.00
73600;BME280;61877;48.246;9.220;2024-03-08T07:35:57;93592.56;;;0.36;100.00
73600;BME280;61877;48.246;9.220;2024-03-08T07:38:23;93585.78;;;0.49;100.00
73600;BME280;61877;48.246;9.220;2024-03-08T07:40:50;93581.78;;;0.51;100.00
73600;BME280;61877;48.246;9.220;2024-03-08T07:43:19;93585.38;;;0.23;100.00
73600;BME280;61877;48.246;9.220;2024-03-08T07:45:49;93587.94;;;0.28;100.00
73600;BME280;61877;48.246;9.220;2024-03-08T07:48:16;93587.94;;;0.28;100.00
73600;BME280;61877;48.246;9.220;2024-03-08T07:50:43;93580.06;;;0.42;100.00
73600;BME280;61877;48.246;9.220;2024-03-08T07:53:12;93587.00;;;0.19;100.00
73600;BME280;61877;48.246;9.220;2024-03-08T07:55:39;93579.94;;;0.15;100.00
73600;BME280;61877;48.246;9.220;2024-03-08T07:58:13;93578.66;;;0.31;100.00
73600;BME280;61877;48.246;9.220;2024-03-08T08:00:43;93572.03;;;0.33;100.00
73600;BME280;61877;48.246;9.220;2024-03-08T08:03:11;93575.81;;;0.27;100.00
73600;BME280;61877;48.246;9.220;2024-03-08T08:05:38;93572.03;;;0.33;100.00
73600;BME280;61877;48.246;9.220;2024-03-08T08:08:07;93575.44;;;0.34;100.00
73600;BME280;61877;48.246;9.220;2024-03-08T08:10:34;93572.72;;;0.57;100.00
73600;BME280;61877;48.246;9.220;2024-03-08T08:13:01;93573.81;;;0.38;100.00
73600;BME280;61877;48.246;9.220;2024-03-08T08:15:32;93576.38;;;0.24;100.00
73600;BME280;61877;48.246;9.220;2024-03-08T08:17:59;93578.59;;;0.36;100.00
73600;BME280;61877;48.246;9.220;2024-03-08T08:20:27;93574.25;;;0.45;100.00
73600;BME280;61877;48.246;9.220;2024-03-08T08:22:53;93570.16;;;0.52;100.00
73600;BME280;61877;48.246;9.220;2024-03-08T08:25:20;93568.88;;;0.50;100.00
73600;BME280;61877;48.246;9.220;2024-03-08T08:27:47;93565.22;;;0.64;100.00
73600;BME280;61877;48.246;9.220;2024-03-08T08:30:14;93560.25;;;0.76;100.00
73600;BME280;61877;48.246;9.220;2024-03-08T08:32:40;93562.63;;;0.91;100.00
73600;BME280;61877;48.246;9.220;2024-03-08T08:35:10;93564.44;;;0.96;100.00
73600;BME280;61877;48.246;9.220;2024-03-08T08:37:39;93565.81;;;1.07;100.00
73600;BME280;61877;48.246;9.220;2024-03-08T08:40:07;93560.66;;;1.15;100.00
73600;BME280;61877;48.246;9.220;2024-03-08T08:42:34;93562.31;;;1.25;100.00
73600;BME280;61877;48.246;9.220;2024-03-08T08:45:01;93558.41;;;1.22;100.00
73600;BME280;61877;48.246;9.220;2024-03-08T08:47:41;93557.31;;;1.23;100.00
73600;BME280;61877;48.246;9.220;2024-03-08T08:50:08;93559.53;;;1.03;100.00
73600;BME280;61877;48.246;9.220;2024-03-08T08:52:35;93552.13;;;1.18;100.00
73600;BME280;61877;48.246;9.220;2024-03-08T08:55:06;93553.59;;;1.24;100.00
73600;BME280;61877;48.246;9.220;2024-03-08T08:57:32;93551.25;;;1.37;100.00
73600;BME280;61877;48.246;9.220;2024-03-08T08:59:59;93552.44;;;1.30;100.00
73600;BME280;61877;48.246;9.220;2024-03-08T09:02:29;93550.47;;;1.36;100.00
73600;BME280;61877;48.246;9.220;2024-03-08T09:04:56;93551.06;;;1.33;100.00
73600;BME280;61877;48.246;9.220;2024-03-08T09:07:23;93542.53;;;1.50;100.00
73600;BME280;61877;48.246;9.220;2024-03-08T09:09:50;93542.34;;;1.60;100.00
73600;BME280;61877;48.246;9.220;2024-03-08T09:12:21;93539.41;;;1.61;100.00
73600;BME280;61877;48.246;9.220;2024-03-08T09:14:48;93535.72;;;1.62;100.00
73600;BME280;61877;48.246;9.220;2024-03-08T09:17:15;93535.72;;;1.49;100.00
73600;BME280;61877;48.246;9.220;2024-03-08T09:19:42;93534.31;;;1.78;100.00
73600;BME280;61877;48.246;9.220;2024-03-08T09:22:17;93526.88;;;1.67;100.00
73600;BME280;61877;48.246;9.220;2024-03-08T09:24:44;93537.56;;;1.48;100.00
73600;BME280;61877;48.246;9.220;2024-03-08T09:27:11;93527.19;;;1.52;100.00
73600;BME280;61877;48.246;9.220;2024-03-08T09:29:39;93532.34;;;1.84;100.00
73600;BME280;61877;48.246;9.220;2024-03-08T09:32:07;93531.09;;;1.68;100.00
73600;BME280;61877;48.246;9.220;2024-03-08T09:34:34;93531.28;;;1.71;100.00
73600;BME280;61877;48.246;9.220;2024-03-08T09:37:04;93524.00;;;2.04;100.00
73600;BME280;61877;48.246;9.220;2024-03-08T09:39:31;93511.50;;;2.18;100.00
73600;BME280;61877;48.246;9.220;2024-03-08T09:41:59;93520.59;;;2.47;98.95
73600;BME280;61877;48.246;9.220;2024-03-08T09:44:25;93516.78;;;2.62;100.00
73600;BME280;61877;48.246;9.220;2024-03-08T09:46:56;93510.91;;;2.65;100.00
73600;BME280;61877;48.246;9.220;2024-03-08T09:49:24;93506.81;;;2.59;97.16
73600;BME280;61877;48.246;9.220;2024-03-08T09:51:57;93506.63;;;2.55;98.96
73600;BME280;61877;48.246;9.220;2024-03-08T09:54:25;93504.00;;;2.33;97.97
73600;BME280;61877;48.246;9.220;2024-03-08T09:56:52;93503.16;;;2.46;97.84
73600;BME280;61877;48.246;9.220;2024-03-08T09:59:19;93515.25;;;2.61;96.84
73600;BME280;61877;48.246;9.220;2024-03-08T10:01:45;93504.53;;;2.66;98.81
73600;BME280;61877;48.246;9.220;2024-03-08T10:04:13;93504.88;;;2.51;98.53
73600;BME280;61877;48.246;9.220;2024-03-08T10:06:41;93506.06;;;2.58;98.40
73600;BME280;61877;48.246;9.220;2024-03-08T10:09:07;93503.81;;;2.52;98.32
73600;BME280;61877;48.246;9.220;2024-03-08T10:11:34;93507.59;;;2.59;96.63
73600;BME280;61877;48.246;9.220;2024-03-08T10:14:01;93494.91;;;2.70;97.92
73600;BME280;61877;48.246;9.220;2024-03-08T10:16:27;93493.03;;;2.71;96.69
73600;BME280;61877;48.246;9.220;2024-03-08T10:18:56;93489.63;;;2.79;98.08
73600;BME280;61877;48.246;9.220;2024-03-08T10:21:24;93485.66;;;2.90;94.88
73600;BME280;61877;48.246;9.220;2024-03-08T10:23:51;93486.84;;;2.53;98.03
73600;BME280;61877;48.246;9.220;2024-03-08T10:26:18;93481.78;;;2.65;98.99
73600;BME280;61877;48.246;9.220;2024-03-08T10:28:46;93478.47;;;2.82;98.77
73600;BME280;61877;48.246;9.220;2024-03-08T10:31:13;93475.25;;;2.93;97.57
73600;BME280;61877;48.246;9.220;2024-03-08T10:33:44;93474.50;;;3.01;94.40
73600;BME280;61877;48.246;9.220;2024-03-08T10:36:13;93475.91;;;3.07;97.10
73600;BME280;61877;48.246;9.220;2024-03-08T10:38:42;93470.34;;;3.17;95.23
73600;BME280;61877;48.246;9.220;2024-03-08T10:41:09;93474.16;;;3.33;93.17
73600;BME280;61877;48.246;9.220;2024-03-08T10:43:52;93470.91;;;3.36;92.56
73600;BME280;61877;48.246;9.220;2024-03-08T10:46:30;93468.38;;;3.31;94.28
73600;BME280;61877;48.246;9.220;2024-03-08T10:49:03;93472.03;;;3.52;92.99
73600;BME280;61877;48.246;9.220;2024-03-08T10:51:33;93473.94;;;3.69;91.35
73600;BME280;61877;48.246;9.220;2024-03-08T10:54:02;93470.19;;;3.14;90.72
73600;BME280;61877;48.246;9.220;2024-03-08T10:56:29;93472.94;;;3.39;91.28
73600;BME280;61877;48.246;9.220;2024-03-08T10:58:56;93471.59;;;3.59;90.23
73600;BME280;61877;48.246;9.220;2024-03-08T11:01:23;93466.66;;;3.35;90.19
73600;BME280;61877;48.246;9.220;2024-03-08T11:03:50;93463.41;;;2.99;92.18
73600;BME280;61877;48.246;9.220;2024-03-08T11:06:18;93456.19;;;3.22;94.23
73600;BME280;61877;48.246;9.220;2024-03-08T11:08:46;93457.09;;;3.73;89.96
73600;BME280;61877;48.246;9.220;2024-03-08T11:11:28;93459.03;;;4.16;88.12
73600;BME280;61877;48.246;9.220;2024-03-08T11:14:00;93453.69;;;4.07;88.36
73600;BME280;61877;48.246;9.220;2024-03-08T11:16:38;93453.69;;;3.98;86.72
73600;BME280;61877;48.246;9.220;2024-03-08T11:19:06;93464.59;;;3.88;87.08
73600;BME280;61877;48.246;9.220;2024-03-08T11:21:57;93452.16;;;3.97;88.22
73600;BME280;61877;48.246;9.220;2024-03-08T11:24:23;93448.69;;;3.88;90.27
73600;BME280;61877;48.246;9.220;2024-03-08T11:26:56;93450.88;;;3.86;85.44
73600;BME280;61877;48.246;9.220;2024-03-08T11:29:36;93446.50;;;4.59;85.06
73600;BME280;61877;48.246;9.220;2024-03-08T11:32:10;93434.03;;;4.17;83.00
73600;BME280;61877;48.246;9.220;2024-03-08T11:34:40;93430.38;;;4.64;84.60
73600;BME280;61877;48.246;9.220;2024-03-08T11:37:11;93430.97;;;4.69;85.88
73600;BME280;61877;48.246;9.220;2024-03-08T11:39:39;93429.94;;;5.08;84.78
73600;BME280;61877;48.246;9.220;2024-03-08T11:42:08;93435.03;;;4.84;82.25
73600;BME280;61877;48.246;9.220;2024-03-08T11:44:35;93425.50;;;4.74;84.12
73600;BME280;61877;48.246;9.220;2024-03-08T11:47:02;93427.44;;;4.57;86.43
73600;BME280;61877;48.246;9.220;2024-03-08T11:49:28;93433.69;;;4.52;85.99
73600;BME280;61877;48.246;9.220;2024-03-08T11:51:58;93430.06;;;4.74;85.78
73600;BME280;61877;48.246;9.220;2024-03-08T11:54:25;93421.97;;;5.08;83.00
73600;BME280;61877;48.246;9.220;2024-03-08T11:56:55;93424.66;;;5.37;80.25
73600;BME280;61877;48.246;9.220;2024-03-08T11:59:23;93418.47;;;5.54;80.26
73600;BME280;61877;48.246;9.220;2024-03-08T12:02:02;93417.06;;;5.18;80.75
73600;BME280;61877;48.246;9.220;2024-03-08T12:04:29;93411.53;;;5.32;77.74
73600;BME280;61877;48.246;9.220;2024-03-08T12:06:59;93408.31;;;5.18;79.31
73600;BME280;61877;48.246;9.220;2024-03-08T12:09:26;93408.47;;;4.84;81.21
73600;BME280;61877;48.246;9.220;2024-03-08T12:11:54;93403.69;;;4.98;80.76
73600;BME280;61877;48.246;9.220;2024-03-08T12:14:21;93407.53;;;5.17;80.30
73600;BME280;61877;48.246;9.220;2024-03-08T12:16:50;93405.00;;;5.21;80.54
73600;BME280;61877;48.246;9.220;2024-03-08T12:19:17;93400.41;;;5.01;79.72
73600;BME280;61877;48.246;9.220;2024-03-08T12:21:45;93401.75;;;4.69;80.72
73600;BME280;61877;48.246;9.220;2024-03-08T12:24:14;93396.41;;;4.78;81.75
73600;BME280;61877;48.246;9.220;2024-03-08T12:26:48;93396.06;;;4.96;82.56
73600;BME280;61877;48.246;9.220;2024-03-08T12:29:21;93391.81;;;5.33;81.96
73600;BME280;61877;48.246;9.220;2024-03-08T12:32:10;93395.25;;;5.34;81.17
73600;BME280;61877;48.246;9.220;2024-03-08T12:34:51;93398.81;;;5.38;79.79
73600;BME280;61877;48.246;9.220;2024-03-08T12:37:18;93395.78;;;5.27;81.46
73600;BME280;61877;48.246;9.220;2024-03-08T12:39:45;93383.38;;;5.31;80.92
73600;BME280;61877;48.246;9.220;2024-03-08T12:42:13;93371.66;;;6.02;77.97
73600;BME280;61877;48.246;9.220;2024-03-08T12:44:45;93377.34;;;5.72;77.18
73600;BME280;61877;48.246;9.220;2024-03-08T12:47:19;93369.06;;;5.94;79.33
73600;BME280;61877;48.246;9.220;2024-03-08T12:49:49;93365.53;;;6.22;79.41
73600;BME280;61877;48.246;9.220;2024-03-08T12:52:16;93356.69;;;6.75;75.60
73600;BME280;61877;48.246;9.220;2024-03-08T12:54:43;93353.47;;;6.37;74.67
73600;BME280;61877;48.246;9.220;2024-03-08T12:57:09;93354.88;;;6.22;76.83
73600;BME280;61877;48.246;9.220;2024-03-08T12:59:36;93349.13;;;6.32;74.73
73600;BME280;61877;48.246;9.220;2024-03-08T13:02:03;93341.94;;;6.78;71.69
73600;BME280;61877;48.246;9.220;2024-03-08T13:04:31;93332.03;;;7.62;72.34
73600;BME280;61877;48.246;9.220;2024-03-08T13:07:01;93341.22;;;8.17;66.67
73600;BME280;61877;48.246;9.220;2024-03-08T13:09:27;93332.28;;;9.61;63.08